sensor_id;sensor_type;location;lat;lon;timestamp;temperature;humidity
21473;DHT22;10898;48.072;11.682;2024-01-30T00:00:39;-0.90;90.80
21473;DHT22;10898;48.072;11.682;2024-01-30T00:02:40;-0.90;90.80
21473;DHT22;10898;48.072;11.682;2024-01-30T00:04:42;-0.90;90.80
21473;DHT22;10898;48.072;11.682;2024-01-30T00:06:44;-0.90;91.00
21473;DHT22;10898;48.072;11.682;2024-01-30T00:08:46;-1.00;91.40
21473;DHT22;10898;48.072;11.682;2024-01-30T00:10:50;-1.00;91.50
21473;DHT22;10898;48.072;11.682;2024-01-30T00:12:52;-1.00;91.50
21473;DHT22;10898;48.072;11.682;2024-01-30T00:14:54;-1.00;91.70
21473;DHT22;10898;48.072;11.682;2024-01-30T00:16:56;-1.00;91.70
21473;DHT22;10898;48.072;11.682;2024-01-30T00:18:58;-1.00;91.50
21473;DHT22;10898;48.072;11.682;2024-01-30T00:21:00;-1.00;91.60
21473;DHT22;10898;48.072;11.682;2024-01-30T00:23:01;-1.00;91.30
21473;DHT22;10898;48.072;11.682;2024-01-30T00:25:03;-1.00;91.40
21473;DHT22;10898;48.072;11.682;2024-01-30T00:27:06;-1.00;91.50
21473;DHT22;10898;48.072;11.682;2024-01-30T00:29:07;-1.00;91.60
21473;DHT22;10898;48.072;11.682;2024-01-30T00:31:09;-1.10;91.70
21473;DHT22;10898;48.072;11.682;2024-01-30T00:33:14;-1.10;91.70
21473;DHT22;10898;48.072;11.682;2024-01-30T00:35:17;-1.10;91.80
21473;DHT22;10898;48.072;11.682;2024-01-30T00:37:18;-1.10;91.80
21473;DHT22;10898;48.072;11.682;2024-01-30T00:39:21;-1.10;91.80
21473;DHT22;10898;48.072;11.682;2024-01-30T00:41:22;-1.10;91.50
21473;DHT22;10898;48.072;11.682;2024-01-30T00:43:24;-1.10;91.50
21473;DHT22;10898;48.072;11.682;2024-01-30T00:45:26;-1.10;91.50
21473;DHT22;10898;48.072;11.682;2024-01-30T00:47:28;-1.10;91.40
21473;DHT22;10898;48.072;11.682;2024-01-30T00:49:30;-1.10;91.40
21473;DHT22;10898;48.072;11.682;2024-01-30T00:51:32;-1.10;91.40
21473;DHT22;10898;48.072;11.682;2024-01-30T00:53:34;-1.10;91.50
21473;DHT22;10898;48.072;11.682;2024-01-30T00:55:36;-1.10;91.70
21473;DHT22;10898;48.072;11.682;2024-01-30T00:57:38;-1.10;91.80
21473;DHT22;10898;48.072;11.682;2024-01-30T00:59:40;-1.20;91.90
21473;DHT22;10898;48.072;11.682;2024-01-30T01:01:41;-1.20;91.90
21473;DHT22;10898;48.072;11.682;2024-01-30T01:03:43;-1.30;92.10
21473;DHT22;10898;48.072;11.682;2024-01-30T01:05:45;-1.30;92.10
21473;DHT22;10898;48.072;11.682;2024-01-30T01:07:47;-1.30;92.00
21473;DHT22;10898;48.072;11.682;2024-01-30T01:09:50;-1.30;92.00
21473;DHT22;10898;48.072;11.682;2024-01-30T01:11:51;-1.30;92.00
21473;DHT22;10898;48.072;11.682;2024-01-30T01:13:53;-1.30;91.90
21473;DHT22;10898;48.072;11.682;2024-01-30T01:15:55;-1.30;91.80
21473;DHT22;10898;48.072;11.682;2024-01-30T01:17:57;-1.30;91.60
21473;DHT22;10898;48.072;11.682;2024-01-30T01:19:59;-1.30;91.60
21473;DHT22;10898;48.072;11.682;2024-01-30T01:22:01;-1.30;91.80
21473;DHT22;10898;48.072;11.682;2024-01-30T01:24:03;-1.30;91.80
21473;DHT22;10898;48.072;11.682;2024-01-30T01:26:05;-1.30;91.90
21473;DHT22;10898;48.072;11.682;2024-01-30T01:28:07;-1.30;92.00
21473;DHT22;10898;48.072;11.682;2024-01-30T01:30:11;-1.30;92.00
21473;DHT22;10898;48.072;11.682;2024-01-30T01:32:13;-1.30;92.10
21473;DHT22;10898;48.072;11.682;2024-01-30T01:34:15;-1.30;92.00
21473;DHT22;10898;48.072;11.682;2024-01-30T01:36:17;-1.30;92.10
21473;DHT22;10898;48.072;11.682;2024-01-30T01:38:19;-1.40;92.10
21473;DHT22;10898;48.072;11.682;2024-01-30T01:40:24;-1.40;92.20
21473;DHT22;10898;48.072;11.682;2024-01-30T01:42:26;-1.40;92.10
21473;DHT22;10898;48.072;11.682;2024-01-30T01:44:28;-1.40;92.10
21473;DHT22;10898;48.072;11.682;2024-01-30T01:46:32;-1.40;92.00
21473;DHT22;10898;48.072;11.682;2024-01-30T01:48:34;-1.40;92.10
21473;DHT22;10898;48.072;11.682;2024-01-30T01:50:36;-1.50;92.20
21473;DHT22;10898;48.072;11.682;2024-01-30T01:52:40;-1.40;92.10
21473;DHT22;10898;48.072;11.682;2024-01-30T01:54:42;-1.50;92.20
21473;DHT22;10898;48.072;11.682;2024-01-30T01:56:45;-1.50;92.20
21473;DHT22;10898;48.072;11.682;2024-01-30T01:58:47;-1.50;92.20
21473;DHT22;10898;48.072;11.682;2024-01-30T02:00:51;-1.50;92.30
21473;DHT22;10898;48.072;11.682;2024-01-30T02:02:54;-1.50;92.40
21473;DHT22;10898;48.072;11.682;2024-01-30T02:04:57;-1.50;92.20
21473;DHT22;10898;48.072;11.682;2024-01-30T02:06:59;-1.50;92.20
21473;DHT22;10898;48.072;11.682;2024-01-30T02:09:01;-1.50;92.00
21473;DHT22;10898;48.072;11.682;2024-01-30T02:11:03;-1.50;92.30
21473;DHT22;10898;48.072;11.682;2024-01-30T02:13:05;-1.60;92.50
21473;DHT22;10898;48.072;11.682;2024-01-30T02:15:07;-1.60;92.70
21473;DHT22;10898;48.072;11.682;2024-01-30T02:17:09;-1.60;92.80
21473;DHT22;10898;48.072;11.682;2024-01-30T02:19:11;-1.60;92.80
21473;DHT22;10898;48.072;11.682;2024-01-30T02:21:17;-1.60;92.70
21473;DHT22;10898;48.072;11.682;2024-01-30T02:23:20;-1.60;92.70
21473;DHT22;10898;48.072;11.682;2024-01-30T02:25:31;-1.60;92.80
21473;DHT22;10898;48.072;11.682;2024-01-30T02:27:33;-1.70;93.10
21473;DHT22;10898;48.072;11.682;2024-01-30T02:29:35;-1.70;93.10
21473;DHT22;10898;48.072;11.682;2024-01-30T02:31:37;-1.70;93.10
21473;DHT22;10898;48.072;11.682;2024-01-30T02:33:38;-1.70;92.90
21473;DHT22;10898;48.072;11.682;2024-01-30T02:35:40;-1.70;92.80
21473;DHT22;10898;48.072;11.682;2024-01-30T02:37:42;-1.70;92.80
21473;DHT22;10898;48.072;11.682;2024-01-30T02:39:44;-1.70;93.10
21473;DHT22;10898;48.072;11.682;2024-01-30T02:41:46;-1.70;93.00
21473;DHT22;10898;48.072;11.682;2024-01-30T02:43:48;-1.70;93.00
21473;DHT22;10898;48.072;11.682;2024-01-30T02:45:49;-1.70;93.20
21473;DHT22;10898;48.072;11.682;2024-01-30T02:47:51;-1.70;93.30
21473;DHT22;10898;48.072;11.682;2024-01-30T02:49:53;-1.70;93.20
21473;DHT22;10898;48.072;11.682;2024-01-30T02:51:57;-1.70;93.00
21473;DHT22;10898;48.072;11.682;2024-01-30T02:53:59;-1.70;93.10
21473;DHT22;10898;48.072;11.682;2024-01-30T02:56:02;-1.70;92.90
21473;DHT22;10898;48.072;11.682;2024-01-30T02:58:03;-1.80;93.00
21473;DHT22;10898;48.072;11.682;2024-01-30T03:00:06;-1.80;93.30
21473;DHT22;10898;48.072;11.682;2024-01-30T03:02:10;-1.80;93.50
21473;DHT22;10898;48.072;11.682;2024-01-30T03:04:12;-1.80;93.40
21473;DHT22;10898;48.072;11.682;2024-01-30T03:06:14;-1.80;93.30
21473;DHT22;10898;48.072;11.682;2024-01-30T03:08:18;-1.80;93.30
21473;DHT22;10898;48.072;11.682;2024-01-30T03:10:21;-1.80;93.30
21473;DHT22;10898;48.072;11.682;2024-01-30T03:12:22;-1.80;93.30
21473;DHT22;10898;48.072;11.682;2024-01-30T03:14:24;-1.80;93.30
21473;DHT22;10898;48.072;11.682;2024-01-30T03:16:26;-1.80;93.30
21473;DHT22;10898;48.072;11.682;2024-01-30T03:18:28;-1.80;93.20
21473;DHT22;10898;48.072;11.682;2024-01-30T03:20:30;-1.90;93.30
21473;DHT22;10898;48.072;11.682;2024-01-30T03:22:31;-1.90;93.40
21473;DHT22;10898;48.072;11.682;2024-01-30T03:24:33;-1.90;93.60
21473;DHT22;10898;48.072;11.682;2024-01-30T03:26:35;-1.90;93.70
21473;DHT22;10898;48.072;11.682;2024-01-30T03:28:37;-1.90;93.70
21473;DHT22;10898;48.072;11.682;2024-01-30T03:30:39;-1.90;93.80
21473;DHT22;10898;48.072;11.682;2024-01-30T03:32:41;-1.90;93.70
21473;DHT22;10898;48.072;11.682;2024-01-30T03:34:43;-1.90;93.70
21473;DHT22;10898;48.072;11.682;2024-01-30T03:36:45;-1.90;93.70
21473;DHT22;10898;48.072;11.682;2024-01-30T03:38:47;-1.90;93.80
21473;DHT22;10898;48.072;11.682;2024-01-30T03:40:49;-1.90;93.90
21473;DHT22;10898;48.072;11.682;2024-01-30T03:42:50;-1.90;94.10
21473;DHT22;10898;48.072;11.682;2024-01-30T03:44:52;-1.90;94.00
21473;DHT22;10898;48.072;11.682;2024-01-30T03:46:55;-1.90;94.00
21473;DHT22;10898;48.072;11.682;2024-01-30T03:48:57;-1.90;94.00
21473;DHT22;10898;48.072;11.682;2024-01-30T03:50:58;-1.90;94.00
21473;DHT22;10898;48.072;11.682;2024-01-30T03:53:00;-1.90;93.90
21473;DHT22;10898;48.072;11.682;2024-01-30T03:55:02;-1.90;93.80
21473;DHT22;10898;48.072;11.682;2024-01-30T03:57:04;-1.90;93.70
21473;DHT22;10898;48.072;11.682;2024-01-30T03:59:07;-1.90;93.90
21473;DHT22;10898;48.072;11.682;2024-01-30T04:01:13;-2.00;93.90
21473;DHT22;10898;48.072;11.682;2024-01-30T04:03:16;-2.00;94.20
21473;DHT22;10898;48.072;11.682;2024-01-30T04:05:18;-2.00;94.30
21473;DHT22;10898;48.072;11.682;2024-01-30T04:07:21;-2.00;94.10
21473;DHT22;10898;48.072;11.682;2024-01-30T04:09:25;-2.00;94.10
21473;DHT22;10898;48.072;11.682;2024-01-30T04:11:28;-1.90;94.10
21473;DHT22;10898;48.072;11.682;2024-01-30T04:13:29;-1.90;94.00
21473;DHT22;10898;48.072;11.682;2024-01-30T04:15:31;-1.90;93.80
21473;DHT22;10898;48.072;11.682;2024-01-30T04:17:34;-2.00;93.90
21473;DHT22;10898;48.072;11.682;2024-01-30T04:19:40;-2.00;93.90
21473;DHT22;10898;48.072;11.682;2024-01-30T04:21:42;-2.00;94.00
21473;DHT22;10898;48.072;11.682;2024-01-30T04:23:44;-2.00;93.90
21473;DHT22;10898;48.072;11.682;2024-01-30T04:25:46;-2.00;94.00
21473;DHT22;10898;48.072;11.682;2024-01-30T04:27:48;-2.00;93.80
21473;DHT22;10898;48.072;11.682;2024-01-30T04:29:49;-2.00;93.90
21473;DHT22;10898;48.072;11.682;2024-01-30T04:31:51;-2.00;93.70
21473;DHT22;10898;48.072;11.682;2024-01-30T04:33:53;-2.00;93.60
21473;DHT22;10898;48.072;11.682;2024-01-30T04:35:55;-2.00;93.70
21473;DHT22;10898;48.072;11.682;2024-01-30T04:37:57;-2.00;93.70
21473;DHT22;10898;48.072;11.682;2024-01-30T04:39:59;-2.00;93.80
21473;DHT22;10898;48.072;11.682;2024-01-30T04:42:01;-2.00;93.60
21473;DHT22;10898;48.072;11.682;2024-01-30T04:44:02;-2.00;93.40
21473;DHT22;10898;48.072;11.682;2024-01-30T04:46:04;-2.00;93.40
21473;DHT22;10898;48.072;11.682;2024-01-30T04:48:07;-2.00;93.50
21473;DHT22;10898;48.072;11.682;2024-01-30T04:50:09;-2.10;93.70
21473;DHT22;10898;48.072;11.682;2024-01-30T04:52:11;-2.10;93.90
21473;DHT22;10898;48.072;11.682;2024-01-30T04:54:13;-2.10;93.90
21473;DHT22;10898;48.072;11.682;2024-01-30T04:56:14;-2.10;93.90
21473;DHT22;10898;48.072;11.682;2024-01-30T04:58:16;-2.10;94.00
21473;DHT22;10898;48.072;11.682;2024-01-30T05:00:18;-2.10;94.00
21473;DHT22;10898;48.072;11.682;2024-01-30T05:02:20;-2.10;94.00
21473;DHT22;10898;48.072;11.682;2024-01-30T05:04:22;-2.10;94.00
21473;DHT22;10898;48.072;11.682;2024-01-30T05:06:25;-2.10;94.00
21473;DHT22;10898;48.072;11.682;2024-01-30T05:08:27;-2.10;94.10
21473;DHT22;10898;48.072;11.682;2024-01-30T05:10:29;-2.10;94.00
21473;DHT22;10898;48.072;11.682;2024-01-30T05:12:31;-2.10;94.00
21473;DHT22;10898;48.072;11.682;2024-01-30T05:14:33;-2.10;94.00
21473;DHT22;10898;48.072;11.682;2024-01-30T05:16:35;-2.10;94.00
21473;DHT22;10898;48.072;11.682;2024-01-30T05:18:37;-2.10;94.20
21473;DHT22;10898;48.072;11.682;2024-01-30T05:20:38;-2.10;94.20
21473;DHT22;10898;48.072;11.682;2024-01-30T05:22:40;-2.10;94.20
21473;DHT22;10898;48.072;11.682;2024-01-30T05:24:46;-2.10;94.10
21473;DHT22;10898;48.072;11.682;2024-01-30T05:26:48;-2.10;94.00
21473;DHT22;10898;48.072;11.682;2024-01-30T05:28:51;-2.10;94.00
21473;DHT22;10898;48.072;11.682;2024-01-30T05:30:53;-2.10;94.00
21473;DHT22;10898;48.072;11.682;2024-01-30T05:32:55;-2.10;94.00
21473;DHT22;10898;48.072;11.682;2024-01-30T05:34:57;-2.20;94.10
21473;DHT22;10898;48.072;11.682;2024-01-30T05:36:59;-2.20;94.10
21473;DHT22;10898;48.072;11.682;2024-01-30T05:39:00;-2.10;94.00
21473;DHT22;10898;48.072;11.682;2024-01-30T05:41:02;-2.10;94.00
21473;DHT22;10898;48.072;11.682;2024-01-30T05:43:04;-2.10;93.90
21473;DHT22;10898;48.072;11.682;2024-01-30T05:45:06;-2.20;94.00
21473;DHT22;10898;48.072;11.682;2024-01-30T05:47:08;-2.10;94.10
21473;DHT22;10898;48.072;11.682;2024-01-30T05:49:10;-2.10;94.20
21473;DHT22;10898;48.072;11.682;2024-01-30T05:51:12;-2.10;94.10
21473;DHT22;10898;48.072;11.682;2024-01-30T05:53:13;-2.10;94.20
21473;DHT22;10898;48.072;11.682;2024-01-30T05:55:15;-2.10;93.90
21473;DHT22;10898;48.072;11.682;2024-01-30T05:57:17;-2.10;93.90
21473;DHT22;10898;48.072;11.682;2024-01-30T05:59:19;-2.20;94.00
21473;DHT22;10898;48.072;11.682;2024-01-30T06:01:21;-2.10;93.80
21473;DHT22;10898;48.072;11.682;2024-01-30T06:03:23;-2.10;93.90
21473;DHT22;10898;48.072;11.682;2024-01-30T06:05:25;-2.10;93.90
21473;DHT22;10898;48.072;11.682;2024-01-30T06:07:27;-2.10;93.70
21473;DHT22;10898;48.072;11.682;2024-01-30T06:09:33;-2.20;93.70
21473;DHT22;10898;48.072;11.682;2024-01-30T06:11:35;-2.20;93.70
21473;DHT22;10898;48.072;11.682;2024-01-30T06:13:37;-2.10;93.50
21473;DHT22;10898;48.072;11.682;2024-01-30T06:15:39;-2.10;93.50
21473;DHT22;10898;48.072;11.682;2024-01-30T06:17:40;-2.10;93.40
21473;DHT22;10898;48.072;11.682;2024-01-30T06:19:42;-2.10;93.30
21473;DHT22;10898;48.072;11.682;2024-01-30T06:21:44;-2.10;93.40
21473;DHT22;10898;48.072;11.682;2024-01-30T06:23:47;-2.20;93.60
21473;DHT22;10898;48.072;11.682;2024-01-30T06:25:48;-2.10;93.60
21473;DHT22;10898;48.072;11.682;2024-01-30T06:27:50;-2.20;93.70
21473;DHT22;10898;48.072;11.682;2024-01-30T06:29:52;-2.20;93.90
21473;DHT22;10898;48.072;11.682;2024-01-30T06:31:54;-2.20;93.90
21473;DHT22;10898;48.072;11.682;2024-01-30T06:33:56;-2.20;93.80
21473;DHT22;10898;48.072;11.682;2024-01-30T06:35:57;-2.20;93.60
21473;DHT22;10898;48.072;11.682;2024-01-30T06:37:59;-2.10;93.50
21473;DHT22;10898;48.072;11.682;2024-01-30T06:40:01;-2.20;93.60
21473;DHT22;10898;48.072;11.682;2024-01-30T06:42:03;-2.20;93.80
21473;DHT22;10898;48.072;11.682;2024-01-30T06:44:05;-2.20;94.00
21473;DHT22;10898;48.072;11.682;2024-01-30T06:46:09;-2.10;94.20
21473;DHT22;10898;48.072;11.682;2024-01-30T06:48:11;-2.20;94.40
21473;DHT22;10898;48.072;11.682;2024-01-30T06:50:13;-2.20;94.40
21473;DHT22;10898;48.072;11.682;2024-01-30T06:52:15;-2.10;94.40
21473;DHT22;10898;48.072;11.682;2024-01-30T06:54:17;-2.10;94.50
21473;DHT22;10898;48.072;11.682;2024-01-30T06:56:19;-2.10;94.70
21473;DHT22;10898;48.072;11.682;2024-01-30T06:58:23;-2.10;94.80
21473;DHT22;10898;48.072;11.682;2024-01-30T07:00:24;-2.10;94.50
21473;DHT22;10898;48.072;11.682;2024-01-30T07:02:26;-2.10;94.50
21473;DHT22;10898;48.072;11.682;2024-01-30T07:04:28;-2.10;94.50
21473;DHT22;10898;48.072;11.682;2024-01-30T07:06:30;-2.10;94.70
21473;DHT22;10898;48.072;11.682;2024-01-30T07:08:32;-2.10;94.60
21473;DHT22;10898;48.072;11.682;2024-01-30T07:10:33;-2.10;94.60
21473;DHT22;10898;48.072;11.682;2024-01-30T07:12:35;-2.00;94.50
21473;DHT22;10898;48.072;11.682;2024-01-30T07:14:37;-2.00;94.60
21473;DHT22;10898;48.072;11.682;2024-01-30T07:16:39;-2.00;94.60
21473;DHT22;10898;48.072;11.682;2024-01-30T07:18:41;-1.90;94.70
21473;DHT22;10898;48.072;11.682;2024-01-30T07:20:43;-1.90;94.90
21473;DHT22;10898;48.072;11.682;2024-01-30T07:22:47;-1.90;95.10
21473;DHT22;10898;48.072;11.682;2024-01-30T07:24:49;-1.80;95.10
21473;DHT22;10898;48.072;11.682;2024-01-30T07:26:53;-1.80;95.10
21473;DHT22;10898;48.072;11.682;2024-01-30T07:28:55;-1.80;95.10
21473;DHT22;10898;48.072;11.682;2024-01-30T07:30:57;-1.80;95.20
21473;DHT22;10898;48.072;11.682;2024-01-30T07:32:59;-1.70;95.30
21473;DHT22;10898;48.072;11.682;2024-01-30T07:35:00;-1.70;95.30
21473;DHT22;10898;48.072;11.682;2024-01-30T07:37:09;-1.70;95.40
21473;DHT22;10898;48.072;11.682;2024-01-30T07:39:12;-1.60;95.10
21473;DHT22;10898;48.072;11.682;2024-01-30T07:41:14;-1.60;95.20
21473;DHT22;10898;48.072;11.682;2024-01-30T07:43:15;-1.60;95.20
21473;DHT22;10898;48.072;11.682;2024-01-30T07:45:17;-1.50;95.20
21473;DHT22;10898;48.072;11.682;2024-01-30T07:47:23;-1.50;95.00
21473;DHT22;10898;48.072;11.682;2024-01-30T07:49:25;-1.30;94.80
21473;DHT22;10898;48.072;11.682;2024-01-30T07:51:27;-1.30;94.50
21473;DHT22;10898;48.072;11.682;2024-01-30T07:53:30;-1.20;94.50
21473;DHT22;10898;48.072;11.682;2024-01-30T07:55:32;-1.10;94.80
21473;DHT22;10898;48.072;11.682;2024-01-30T07:57:34;-1.10;95.10
21473;DHT22;10898;48.072;11.682;2024-01-30T07:59:36;-1.00;95.30
21473;DHT22;10898;48.072;11.682;2024-01-30T08:01:38;-1.00;95.10
21473;DHT22;10898;48.072;11.682;2024-01-30T08:03:40;-0.90;94.90
21473;DHT22;10898;48.072;11.682;2024-01-30T08:05:43;-0.80;94.50
21473;DHT22;10898;48.072;11.682;2024-01-30T08:07:45;-0.70;94.80
21473;DHT22;10898;48.072;11.682;2024-01-30T08:09:48;-0.60;94.90
21473;DHT22;10898;48.072;11.682;2024-01-30T08:11:50;-0.50;94.80
21473;DHT22;10898;48.072;11.682;2024-01-30T08:13:52;-0.40;94.60
21473;DHT22;10898;48.072;11.682;2024-01-30T08:15:54;-0.40;94.00
21473;DHT22;10898;48.072;11.682;2024-01-30T08:17:56;-0.30;93.60
21473;DHT22;10898;48.072;11.682;2024-01-30T08:19:59;-0.20;94.30
21473;DHT22;10898;48.072;11.682;2024-01-30T08:22:02;-0.10;93.70
21473;DHT22;10898;48.072;11.682;2024-01-30T08:24:04;-0.10;93.00
21473;DHT22;10898;48.072;11.682;2024-01-30T08:26:06;0.00;92.60
21473;DHT22;10898;48.072;11.682;2024-01-30T08:28:08;0.10;92.60
21473;DHT22;10898;48.072;11.682;2024-01-30T08:30:10;0.30;92.10
21473;DHT22;10898;48.072;11.682;2024-01-30T08:32:12;0.40;91.60
21473;DHT22;10898;48.072;11.682;2024-01-30T08:34:13;0.50;91.10
21473;DHT22;10898;48.072;11.682;2024-01-30T08:36:16;0.60;90.10
21473;DHT22;10898;48.072;11.682;2024-01-30T08:38:18;0.80;89.40
21473;DHT22;10898;48.072;11.682;2024-01-30T08:40:20;0.80;89.40
21473;DHT22;10898;48.072;11.682;2024-01-30T08:42:22;1.00;88.90
21473;DHT22;10898;48.072;11.682;2024-01-30T08:44:24;1.10;87.60
21473;DHT22;10898;48.072;11.682;2024-01-30T08:46:26;1.30;86.70
21473;DHT22;10898;48.072;11.682;2024-01-30T08:48:28;1.40;85.90
21473;DHT22;10898;48.072;11.682;2024-01-30T08:50:30;1.50;85.00
21473;DHT22;10898;48.072;11.682;2024-01-30T08:52:34;1.70;84.60
21473;DHT22;10898;48.072;11.682;2024-01-30T08:54:36;1.80;83.90
21473;DHT22;10898;48.072;11.682;2024-01-30T08:56:38;2.00;83.10
21473;DHT22;10898;48.072;11.682;2024-01-30T08:58:40;2.20;83.20
21473;DHT22;10898;48.072;11.682;2024-01-30T09:00:41;2.30;82.40
21473;DHT22;10898;48.072;11.682;2024-01-30T09:02:43;2.40;82.10
21473;DHT22;10898;48.072;11.682;2024-01-30T09:04:46;2.50;80.80
21473;DHT22;10898;48.072;11.682;2024-01-30T09:06:48;2.70;80.90
21473;DHT22;10898;48.072;11.682;2024-01-30T09:08:50;2.80;81.30
21473;DHT22;10898;48.072;11.682;2024-01-30T09:10:52;3.00;80.60
21473;DHT22;10898;48.072;11.682;2024-01-30T09:12:54;3.10;79.00
21473;DHT22;10898;48.072;11.682;2024-01-30T09:14:56;3.20;78.00
21473;DHT22;10898;48.072;11.682;2024-01-30T09:16:58;3.40;77.60
21473;DHT22;10898;48.072;11.682;2024-01-30T09:19:00;3.50;78.30
21473;DHT22;10898;48.072;11.682;2024-01-30T09:21:01;3.60;77.60
21473;DHT22;10898;48.072;11.682;2024-01-30T09:23:03;3.70;76.70
21473;DHT22;10898;48.072;11.682;2024-01-30T09:25:05;3.90;76.40
21473;DHT22;10898;48.072;11.682;2024-01-30T09:27:07;4.00;74.60
21473;DHT22;10898;48.072;11.682;2024-01-30T09:29:09;4.20;74.70
21473;DHT22;10898;48.072;11.682;2024-01-30T09:31:12;4.30;74.40
21473;DHT22;10898;48.072;11.682;2024-01-30T09:33:14;4.40;74.50
21473;DHT22;10898;48.072;11.682;2024-01-30T09:35:16;4.50;73.70
21473;DHT22;10898;48.072;11.682;2024-01-30T09:37:18;4.70;73.40
21473;DHT22;10898;48.072;11.682;2024-01-30T09:39:20;4.80;73.30
21473;DHT22;10898;48.072;11.682;2024-01-30T09:41:24;4.90;72.70
21473;DHT22;10898;48.072;11.682;2024-01-30T09:43:30;5.00;72.00
21473;DHT22;10898;48.072;11.682;2024-01-30T09:45:35;5.10;72.60
21473;DHT22;10898;48.072;11.682;2024-01-30T09:47:39;5.30;72.40
21473;DHT22;10898;48.072;11.682;2024-01-30T09:49:43;5.30;71.10
21473;DHT22;10898;48.072;11.682;2024-01-30T09:51:45;5.50;70.70
21473;DHT22;10898;48.072;11.682;2024-01-30T09:53:48;5.60;70.70
21473;DHT22;10898;48.072;11.682;2024-01-30T09:55:51;5.70;68.90
21473;DHT22;10898;48.072;11.682;2024-01-30T09:57:52;5.80;69.10
21473;DHT22;10898;48.072;11.682;2024-01-30T09:59:54;5.90;68.40
21473;DHT22;10898;48.072;11.682;2024-01-30T10:01:57;6.00;67.70
21473;DHT22;10898;48.072;11.682;2024-01-30T10:03:59;6.10;68.20
21473;DHT22;10898;48.072;11.682;2024-01-30T10:06:01;6.20;67.30
21473;DHT22;10898;48.072;11.682;2024-01-30T10:08:08;6.30;66.90
21473;DHT22;10898;48.072;11.682;2024-01-30T10:10:10;6.50;65.30
21473;DHT22;10898;48.072;11.682;2024-01-30T10:12:12;6.60;63.70
21473;DHT22;10898;48.072;11.682;2024-01-30T10:14:15;6.80;64.90
21473;DHT22;10898;48.072;11.682;2024-01-30T10:16:17;6.90;64.60
21473;DHT22;10898;48.072;11.682;2024-01-30T10:18:19;7.00;64.00
21473;DHT22;10898;48.072;11.682;2024-01-30T10:20:21;7.00;63.60
21473;DHT22;10898;48.072;11.682;2024-01-30T10:22:24;7.20;63.20
21473;DHT22;10898;48.072;11.682;2024-01-30T10:24:26;7.30;62.00
21473;DHT22;10898;48.072;11.682;2024-01-30T10:26:28;7.40;61.70
21473;DHT22;10898;48.072;11.682;2024-01-30T10:28:31;7.50;60.30
21473;DHT22;10898;48.072;11.682;2024-01-30T10:30:32;7.60;60.50
21473;DHT22;10898;48.072;11.682;2024-01-30T10:32:34;7.80;59.60
21473;DHT22;10898;48.072;11.682;2024-01-30T10:34:36;7.80;59.60
21473;DHT22;10898;48.072;11.682;2024-01-30T10:36:43;8.00;58.20
21473;DHT22;10898;48.072;11.682;2024-01-30T10:38:50;8.00;59.10
21473;DHT22;10898;48.072;11.682;2024-01-30T10:40:56;8.10;58.20
21473;DHT22;10898;48.072;11.682;2024-01-30T10:43:01;8.20;57.40
21473;DHT22;10898;48.072;11.682;2024-01-30T10:45:13;8.30;56.30
21473;DHT22;10898;48.072;11.682;2024-01-30T10:47:18;8.40;56.70
21473;DHT22;10898;48.072;11.682;2024-01-30T10:49:23;8.50;55.80
21473;DHT22;10898;48.072;11.682;2024-01-30T10:51:26;8.60;54.60
21473;DHT22;10898;48.072;11.682;2024-01-30T10:53:31;8.80;54.20
21473;DHT22;10898;48.072;11.682;2024-01-30T10:55:33;8.90;53.70
21473;DHT22;10898;48.072;11.682;2024-01-30T10:57:37;9.00;53.40
21473;DHT22;10898;48.072;11.682;2024-01-30T10:59:39;9.00;54.20
21473;DHT22;10898;48.072;11.682;2024-01-30T11:01:41;9.10;52.70
21473;DHT22;10898;48.072;11.682;2024-01-30T11:03:43;9.20;50.80
21473;DHT22;10898;48.072;11.682;2024-01-30T11:05:49;9.20;51.70
21473;DHT22;10898;48.072;11.682;2024-01-30T11:07:53;9.20;52.00
21473;DHT22;10898;48.072;11.682;2024-01-30T11:12:00;9.40;49.90
21473;DHT22;10898;48.072;11.682;2024-01-30T11:14:02;9.40;50.60
21473;DHT22;10898;48.072;11.682;2024-01-30T11:16:05;9.50;51.00
21473;DHT22;10898;48.072;11.682;2024-01-30T11:18:07;9.50;50.90
21473;DHT22;10898;48.072;11.682;2024-01-30T11:20:16;9.50;49.80
21473;DHT22;10898;48.072;11.682;2024-01-30T11:22:22;9.60;49.10
21473;DHT22;10898;48.072;11.682;2024-01-30T11:24:42;9.60;48.50
21473;DHT22;10898;48.072;11.682;2024-01-30T11:26:58;9.70;48.90
21473;DHT22;10898;48.072;11.682;2024-01-30T11:29:04;9.70;48.80
21473;DHT22;10898;48.072;11.682;2024-01-30T11:31:08;9.60;47.90
21473;DHT22;10898;48.072;11.682;2024-01-30T11:33:12;9.60;49.60
21473;DHT22;10898;48.072;11.682;2024-01-30T11:35:15;9.70;49.80
21473;DHT22;10898;48.072;11.682;2024-01-30T11:37:20;9.70;49.40
21473;DHT22;10898;48.072;11.682;2024-01-30T11:39:23;9.80;50.00
21473;DHT22;10898;48.072;11.682;2024-01-30T11:41:26;9.80;49.70
21473;DHT22;10898;48.072;11.682;2024-01-30T11:43:28;9.80;49.50
21473;DHT22;10898;48.072;11.682;2024-01-30T11:45:30;9.90;49.90
21473;DHT22;10898;48.072;11.682;2024-01-30T11:47:35;10.00;49.20
21473;DHT22;10898;48.072;11.682;2024-01-30T11:49:38;10.00;49.90
21473;DHT22;10898;48.072;11.682;2024-01-30T11:51:40;10.00;49.80
21473;DHT22;10898;48.072;11.682;2024-01-30T11:53:43;10.10;50.30
21473;DHT22;10898;48.072;11.682;2024-01-30T11:55:50;10.10;48.30
21473;DHT22;10898;48.072;11.682;2024-01-30T11:57:55;10.20;49.60
21473;DHT22;10898;48.072;11.682;2024-01-30T11:59:57;10.30;49.00
21473;DHT22;10898;48.072;11.682;2024-01-30T12:01:59;10.40;48.90
21473;DHT22;10898;48.072;11.682;2024-01-30T12:04:01;10.50;49.60
21473;DHT22;10898;48.072;11.682;2024-01-30T12:06:05;10.60;48.40
21473;DHT22;10898;48.072;11.682;2024-01-30T12:08:15;10.70;48.10
21473;DHT22;10898;48.072;11.682;2024-01-30T12:10:17;10.80;47.60
21473;DHT22;10898;48.072;11.682;2024-01-30T12:12:25;10.80;48.00
21473;DHT22;10898;48.072;11.682;2024-01-30T12:14:27;10.80;48.30
21473;DHT22;10898;48.072;11.682;2024-01-30T12:16:29;10.90;47.50
21473;DHT22;10898;48.072;11.682;2024-01-30T12:18:31;11.00;48.10
21473;DHT22;10898;48.072;11.682;2024-01-30T12:20:36;11.10;47.90
21473;DHT22;10898;48.072;11.682;2024-01-30T12:24:42;11.30;48.50
21473;DHT22;10898;48.072;11.682;2024-01-30T12:26:43;11.40;48.50
21473;DHT22;10898;48.072;11.682;2024-01-30T12:28:49;11.50;47.30
21473;DHT22;10898;48.072;11.682;2024-01-30T12:30:57;11.50;47.00
21473;DHT22;10898;48.072;11.682;2024-01-30T12:33:03;11.70;46.00
21473;DHT22;10898;48.072;11.682;2024-01-30T12:35:09;11.70;46.70
21473;DHT22;10898;48.072;11.682;2024-01-30T12:37:12;11.90;45.50
21473;DHT22;10898;48.072;11.682;2024-01-30T12:39:15;11.90;45.20
21473;DHT22;10898;48.072;11.682;2024-01-30T12:41:17;11.90;45.20
21473;DHT22;10898;48.072;11.682;2024-01-30T12:43:19;12.00;45.10
21473;DHT22;10898;48.072;11.682;2024-01-30T12:45:36;12.10;45.00
21473;DHT22;10898;48.072;11.682;2024-01-30T12:47:38;12.10;44.40
21473;DHT22;10898;48.072;11.682;2024-01-30T12:49:39;12.10;43.60